createdAt,value
2023-06-30T00:00:26.819Z,100.00
2023-06-30T00:02:57.049Z,100.00
2023-06-30T00:05:26.644Z,100.00
2023-06-30T00:07:59.744Z,100.00
2023-06-30T00:10:27.723Z,100.00
2023-06-30T00:12:55.361Z,100.00
2023-06-30T00:15:22.969Z,100.00
2023-06-30T00:17:50.569Z,100.00
2023-06-30T00:20:18.240Z,100.00
2023-06-30T00:22:45.811Z,100.00
2023-06-30T00:25:15.283Z,100.00
2023-06-30T00:27:43.314Z,100.00
2023-06-30T00:30:11.207Z,100.00
2023-06-30T00:32:38.919Z,100.00
2023-06-30T00:35:07.081Z,100.00
2023-06-30T00:37:34.697Z,100.00
2023-06-30T00:40:02.230Z,100.00
2023-06-30T00:42:29.878Z,100.00
2023-06-30T00:44:57.425Z,100.00
2023-06-30T00:47:25.153Z,100.00
2023-06-30T00:49:53.090Z,100.00
2023-06-30T00:52:20.963Z,100.00
2023-06-30T00:54:48.798Z,100.00
2023-06-30T00:57:16.408Z,100.00
2023-06-30T00:59:44.288Z,100.00
2023-06-30T01:02:20.674Z,100.00
2023-06-30T01:04:57.332Z,100.00
2023-06-30T01:07:34.360Z,100.00
2023-06-30T01:10:08.387Z,100.00
2023-06-30T01:12:36.877Z,100.00
2023-06-30T01:15:05.719Z,100.00
2023-06-30T01:17:36.139Z,100.00
2023-06-30T01:20:11.104Z,100.00
2023-06-30T01:22:45.827Z,100.00
2023-06-30T01:25:20.817Z,100.00
2023-06-30T01:27:50.415Z,100.00
2023-06-30T01:30:19.932Z,100.00
2023-06-30T01:32:48.847Z,100.00
2023-06-30T01:35:16.481Z,100.00
2023-06-30T01:37:44.344Z,100.00
2023-06-30T01:40:12.572Z,100.00
2023-06-30T01:42:41.304Z,100.00
2023-06-30T01:45:11.896Z,100.00
2023-06-30T01:47:39.843Z,100.00
2023-06-30T01:50:08.107Z,100.00
2023-06-30T01:52:35.882Z,100.00
2023-06-30T01:55:05.585Z,100.00
2023-06-30T01:57:33.192Z,100.00
2023-06-30T02:00:00.825Z,100.00
2023-06-30T02:02:28.507Z,100.00
2023-06-30T02:04:56.098Z,100.00
2023-06-30T02:07:24.575Z,100.00
2023-06-30T02:09:52.652Z,100.00
2023-06-30T02:12:20.319Z,100.00
2023-06-30T02:14:47.989Z,100.00
2023-06-30T02:17:15.663Z,100.00
2023-06-30T02:19:43.494Z,100.00
2023-06-30T02:22:11.191Z,100.00
2023-06-30T02:24:38.764Z,100.00
2023-06-30T02:27:09.667Z,100.00
2023-06-30T02:29:37.366Z,100.00
2023-06-30T02:32:05.264Z,100.00
2023-06-30T02:34:32.803Z,100.00
2023-06-30T02:37:01.806Z,100.00
2023-06-30T02:39:29.476Z,100.00
2023-06-30T02:41:57.134Z,100.00
2023-06-30T02:44:24.787Z,100.00
2023-06-30T02:46:52.544Z,100.00
2023-06-30T02:49:20.097Z,100.00
2023-06-30T02:51:47.739Z,100.00
2023-06-30T02:54:15.401Z,100.00
2023-06-30T02:56:42.961Z,100.00
2023-06-30T02:59:10.560Z,100.00
2023-06-30T03:01:38.280Z,100.00
2023-06-30T03:04:06.247Z,100.00
2023-06-30T03:06:33.977Z,100.00
2023-06-30T03:09:01.586Z,100.00
2023-06-30T03:11:29.501Z,100.00
2023-06-30T03:13:57.093Z,100.00
2023-06-30T03:16:24.666Z,100.00
2023-06-30T03:18:52.287Z,100.00
2023-06-30T03:21:19.927Z,100.00
2023-06-30T03:23:47.889Z,100.00
2023-06-30T03:26:15.689Z,100.00
2023-06-30T03:28:43.337Z,100.00
2023-06-30T03:31:11.014Z,100.00
2023-06-30T03:33:38.582Z,100.00
2023-06-30T03:36:06.386Z,100.00
2023-06-30T03:38:34.042Z,100.00
2023-06-30T03:41:01.608Z,100.00
2023-06-30T03:43:29.236Z,100.00
2023-06-30T03:45:56.762Z,100.00
2023-06-30T03:48:24.447Z,100.00
2023-06-30T03:50:55.219Z,100.00
2023-06-30T03:53:23.203Z,100.00
2023-06-30T03:55:50.917Z,100.00
2023-06-30T03:58:18.505Z,100.00
2023-06-30T04:00:46.171Z,100.00
2023-06-30T04:03:13.953Z,100.00
2023-06-30T04:05:41.684Z,100.00
2023-06-30T04:08:09.465Z,100.00
2023-06-30T04:10:37.046Z,100.00
2023-06-30T04:13:09.038Z,100.00
2023-06-30T04:15:36.749Z,100.00
2023-06-30T04:18:05.455Z,100.00
2023-06-30T04:20:33.091Z,100.00
2023-06-30T04:23:00.791Z,100.00
2023-06-30T04:25:28.422Z,100.00
2023-06-30T04:27:56.063Z,100.00
2023-06-30T04:30:23.681Z,100.00
2023-06-30T04:32:51.365Z,100.00
2023-06-30T04:35:19.537Z,100.00
2023-06-30T04:37:47.166Z,100.00
2023-06-30T04:40:14.828Z,100.00
2023-06-30T04:42:42.480Z,100.00
2023-06-30T04:45:10.436Z,100.00
2023-06-30T04:47:38.075Z,100.00
2023-06-30T04:50:06.256Z,100.00
2023-06-30T04:52:33.883Z,100.00
2023-06-30T04:55:01.605Z,100.00
2023-06-30T04:57:29.255Z,100.00
2023-06-30T04:59:57.902Z,100.00
2023-06-30T05:02:25.529Z,100.00
2023-06-30T05:04:53.282Z,100.00
2023-06-30T05:07:21.555Z,100.00
2023-06-30T05:09:49.197Z,100.00
2023-06-30T05:12:16.888Z,100.00
2023-06-30T05:14:44.505Z,100.00
2023-06-30T05:17:12.333Z,100.00
2023-06-30T05:19:40.133Z,100.00
2023-06-30T05:22:07.796Z,100.00
2023-06-30T05:24:35.679Z,100.00
2023-06-30T05:27:03.683Z,100.00
2023-06-30T05:29:33.238Z,100.00
2023-06-30T05:32:00.828Z,100.00
2023-06-30T05:34:29.910Z,100.00
2023-06-30T05:36:58.035Z,100.00
2023-06-30T05:39:25.660Z,100.00
2023-06-30T05:41:53.212Z,100.00
2023-06-30T05:44:20.921Z,100.00
2023-06-30T05:46:48.572Z,100.00
2023-06-30T05:49:16.272Z,100.00
2023-06-30T05:51:43.839Z,100.00
2023-06-30T05:54:11.555Z,100.00
2023-06-30T05:56:39.158Z,100.00
2023-06-30T05:59:10.652Z,100.00
2023-06-30T06:01:39.640Z,100.00
2023-06-30T06:04:12.047Z,100.00
2023-06-30T06:06:40.111Z,100.00
2023-06-30T06:09:07.919Z,100.00
2023-06-30T06:11:35.516Z,100.00
2023-06-30T06:14:03.172Z,100.00
2023-06-30T06:16:30.789Z,100.00
2023-06-30T06:18:58.440Z,100.00
2023-06-30T06:21:29.222Z,100.00
2023-06-30T06:23:57.680Z,100.00
2023-06-30T06:26:25.402Z,100.00
2023-06-30T06:28:53.116Z,100.00
2023-06-30T06:31:20.759Z,100.00
2023-06-30T06:33:48.446Z,100.00
2023-06-30T06:36:16.049Z,100.00
2023-06-30T06:38:43.687Z,100.00
2023-06-30T06:41:11.372Z,100.00
2023-06-30T06:43:38.983Z,100.00
2023-06-30T06:46:06.710Z,100.00
2023-06-30T06:48:34.461Z,100.00
2023-06-30T06:51:04.451Z,100.00
2023-06-30T06:53:34.703Z,100.00
2023-06-30T06:56:03.386Z,100.00
2023-06-30T06:58:33.254Z,100.00
2023-06-30T07:01:01.206Z,100.00
2023-06-30T07:03:29.469Z,100.00
2023-06-30T07:05:58.827Z,100.00
2023-06-30T07:08:27.799Z,100.00
2023-06-30T07:10:56.466Z,100.00
2023-06-30T07:13:24.578Z,100.00
2023-06-30T07:15:52.389Z,100.00
2023-06-30T07:18:21.036Z,100.00
2023-06-30T07:20:53.241Z,99.58
2023-06-30T07:23:20.809Z,99.82
2023-06-30T07:25:50.493Z,96.13
2023-06-30T07:28:18.194Z,98.10
2023-06-30T07:30:45.938Z,91.68
2023-06-30T07:33:14.333Z,91.21
2023-06-30T07:35:42.387Z,91.13
2023-06-30T07:38:10.594Z,94.66
2023-06-30T07:40:54.246Z,93.75
2023-06-30T07:43:24.135Z,93.90
2023-06-30T07:45:52.143Z,94.01
2023-06-30T07:48:19.978Z,95.08
2023-06-30T07:50:59.477Z,95.22
2023-06-30T07:53:35.228Z,93.87
2023-06-30T07:56:02.863Z,97.88
2023-06-30T07:58:30.519Z,96.27
2023-06-30T08:00:58.307Z,95.32
2023-06-30T08:03:26.048Z,95.92
2023-06-30T08:05:54.443Z,96.55
2023-06-30T08:08:25.096Z,96.55
2023-06-30T08:10:52.876Z,95.49
2023-06-30T08:13:20.501Z,93.94
2023-06-30T08:15:49.508Z,93.08
2023-06-30T08:18:31.622Z,95.48
2023-06-30T08:21:03.285Z,90.24
2023-06-30T08:23:30.984Z,88.01
2023-06-30T08:25:58.639Z,86.28
2023-06-30T08:28:26.517Z,82.92
2023-06-30T08:30:54.966Z,82.66
2023-06-30T08:36:03.267Z,79.59
2023-06-30T08:38:31.068Z,82.99
2023-06-30T08:40:59.193Z,77.83
2023-06-30T08:43:29.416Z,74.30
2023-06-30T08:45:58.028Z,78.44
2023-06-30T08:48:27.814Z,81.06
2023-06-30T08:50:55.739Z,74.80
2023-06-30T08:53:24.506Z,76.29
2023-06-30T08:55:52.498Z,75.16
2023-06-30T08:58:25.243Z,69.79
2023-06-30T09:00:53.710Z,68.79
2023-06-30T09:03:21.647Z,67.56
2023-06-30T09:05:52.036Z,64.38
2023-06-30T09:08:25.153Z,65.63
2023-06-30T09:10:53.132Z,63.96
2023-06-30T09:13:22.517Z,58.89
2023-06-30T09:15:51.264Z,59.72
2023-06-30T09:18:19.067Z,59.70
2023-06-30T09:20:46.800Z,62.90
2023-06-30T09:23:16.868Z,58.93
2023-06-30T09:25:45.101Z,58.47
2023-06-30T09:28:15.674Z,58.16
2023-06-30T09:30:49.091Z,59.94
2023-06-30T09:33:18.004Z,58.97
2023-06-30T09:35:49.922Z,61.47
2023-06-30T09:38:20.234Z,69.04
2023-06-30T09:40:50.566Z,71.07
2023-06-30T09:43:20.315Z,68.75
2023-06-30T09:45:55.303Z,70.56
2023-06-30T09:48:23.125Z,70.28
2023-06-30T09:50:53.792Z,70.12
2023-06-30T09:53:21.803Z,73.11
2023-06-30T09:55:51.248Z,73.30
2023-06-30T09:58:20.281Z,73.71
2023-06-30T10:00:48.680Z,72.49
2023-06-30T10:03:18.360Z,71.40
2023-06-30T10:05:49.467Z,68.70
2023-06-30T10:08:18.158Z,70.24
2023-06-30T10:10:45.975Z,69.62
2023-06-30T10:13:14.649Z,70.96
2023-06-30T10:15:43.535Z,71.53
2023-06-30T10:18:12.789Z,74.56
2023-06-30T10:20:48.348Z,79.06
2023-06-30T10:23:18.156Z,65.51
2023-06-30T10:25:46.191Z,65.47
2023-06-30T10:28:16.007Z,65.69
2023-06-30T10:30:44.368Z,66.44
2023-06-30T10:33:12.116Z,67.93
2023-06-30T10:35:40.317Z,71.26
2023-06-30T10:38:08.136Z,72.17
2023-06-30T10:40:35.745Z,74.94
2023-06-30T10:43:08.100Z,72.83
2023-06-30T10:45:37.155Z,70.43
2023-06-30T10:48:11.986Z,67.76
2023-06-30T10:50:43.690Z,66.80
2023-06-30T10:53:18.766Z,65.30
2023-06-30T10:55:47.044Z,66.53
2023-06-30T10:58:24.454Z,67.81
2023-06-30T11:01:07.972Z,70.26
2023-06-30T11:04:00.513Z,68.11
2023-06-30T11:06:28.526Z,65.37
2023-06-30T11:09:01.978Z,62.61
2023-06-30T11:11:29.868Z,56.53
2023-06-30T11:14:08.004Z,58.86
2023-06-30T11:17:07.874Z,59.01
2023-06-30T11:19:38.909Z,56.66
2023-06-30T11:22:26.485Z,61.16
2023-06-30T11:24:54.541Z,56.26
2023-06-30T11:27:23.118Z,59.67
2023-06-30T11:29:52.223Z,56.81
2023-06-30T11:32:26.945Z,55.73
2023-06-30T11:34:55.111Z,49.86
2023-06-30T11:37:23.046Z,50.63
2023-06-30T11:39:59.688Z,49.79
2023-06-30T11:42:27.684Z,48.62
2023-06-30T11:44:55.261Z,49.02
2023-06-30T11:47:23.048Z,49.03
2023-06-30T11:49:51.464Z,50.58
2023-06-30T11:52:20.892Z,55.32
2023-06-30T11:54:48.455Z,53.32
2023-06-30T11:57:16.109Z,55.50
2023-06-30T11:59:43.710Z,60.46
2023-06-30T12:02:13.021Z,61.30
2023-06-30T12:04:48.858Z,57.78
2023-06-30T12:07:16.919Z,58.19
2023-06-30T12:09:44.661Z,58.23
2023-06-30T12:12:12.277Z,58.71
2023-06-30T12:14:43.597Z,59.34
2023-06-30T12:17:11.621Z,58.01
2023-06-30T12:19:39.616Z,55.18
2023-06-30T12:22:08.187Z,53.80
2023-06-30T12:24:36.567Z,54.16
2023-06-30T12:27:10.843Z,49.48
2023-06-30T12:29:38.445Z,48.20
2023-06-30T12:32:16.548Z,50.42
2023-06-30T12:34:47.301Z,53.99
2023-06-30T12:37:18.956Z,50.32
2023-06-30T12:39:46.668Z,48.49
2023-06-30T12:42:14.426Z,47.00
2023-06-30T12:44:42.002Z,45.62
2023-06-30T12:47:09.754Z,47.17
2023-06-30T12:49:38.494Z,47.64
2023-06-30T12:52:06.522Z,49.75
2023-06-30T12:54:34.173Z,49.03
2023-06-30T12:57:01.860Z,47.00
2023-06-30T12:59:29.468Z,42.20
2023-06-30T13:01:57.216Z,41.67
2023-06-30T13:04:26.082Z,41.34
2023-06-30T13:06:55.926Z,41.40
2023-06-30T13:09:23.451Z,41.78
2023-06-30T13:11:51.228Z,40.00
2023-06-30T13:14:18.968Z,39.77
2023-06-30T13:16:46.617Z,39.76
2023-06-30T13:19:14.428Z,39.38
2023-06-30T13:21:42.071Z,40.56
2023-06-30T13:24:09.681Z,39.22
2023-06-30T13:26:38.337Z,40.04
2023-06-30T13:29:06.467Z,42.38
2023-06-30T13:31:34.211Z,42.70
2023-06-30T13:34:02.089Z,42.01
2023-06-30T13:36:31.096Z,43.45
2023-06-30T13:38:59.436Z,42.52
2023-06-30T13:41:28.032Z,40.83
2023-06-30T13:43:55.669Z,39.41
2023-06-30T13:46:23.389Z,41.37
2023-06-30T13:48:51.030Z,42.26
2023-06-30T13:51:18.684Z,42.05
2023-06-30T13:53:46.251Z,40.92
2023-06-30T13:56:13.937Z,40.43
2023-06-30T13:58:42.684Z,42.02
2023-06-30T14:01:10.283Z,41.69
2023-06-30T14:03:39.086Z,41.93
2023-06-30T14:06:06.928Z,43.63
2023-06-30T14:08:35.294Z,41.56
2023-06-30T14:11:03.106Z,41.13
2023-06-30T14:13:30.619Z,41.26
2023-06-30T14:15:58.133Z,42.70
2023-06-30T14:18:25.735Z,45.51
2023-06-30T14:20:53.373Z,44.71
2023-06-30T14:23:21.013Z,46.68
2023-06-30T14:25:48.811Z,48.70
2023-06-30T14:28:16.734Z,49.17
2023-06-30T14:30:44.437Z,49.07
2023-06-30T14:33:12.220Z,48.94
2023-06-30T14:35:40.340Z,50.19
2023-06-30T14:38:08.321Z,50.19
2023-06-30T14:40:35.986Z,53.22
2023-06-30T14:43:05.010Z,55.42
2023-06-30T14:45:32.716Z,54.40
2023-06-30T14:48:00.366Z,53.91
2023-06-30T14:50:28.327Z,55.41
2023-06-30T14:52:55.915Z,54.83
2023-06-30T14:55:23.709Z,55.91
2023-06-30T14:57:51.999Z,60.48
2023-06-30T15:00:20.709Z,61.16
2023-06-30T15:02:49.170Z,61.33
2023-06-30T15:05:16.985Z,55.28
2023-06-30T15:07:47.162Z,53.39
2023-06-30T15:10:15.306Z,59.05
2023-06-30T15:12:42.905Z,55.31
2023-06-30T15:15:11.291Z,55.83
2023-06-30T15:17:39.206Z,57.72
2023-06-30T15:20:08.124Z,59.83
2023-06-30T15:22:36.081Z,65.04
2023-06-30T15:25:04.609Z,65.47
2023-06-30T15:27:33.317Z,65.83
2023-06-30T15:30:01.275Z,68.60
2023-06-30T15:32:29.123Z,67.93
2023-06-30T15:34:56.747Z,66.49
2023-06-30T15:37:24.518Z,65.79
2023-06-30T15:39:52.438Z,68.46
2023-06-30T15:42:20.290Z,67.69
2023-06-30T15:44:47.942Z,72.52
2023-06-30T15:47:15.564Z,71.53
2023-06-30T15:49:43.332Z,69.18
2023-06-30T15:52:12.169Z,67.35
2023-06-30T15:54:39.740Z,65.79
2023-06-30T15:57:07.464Z,67.28
2023-06-30T15:59:35.438Z,67.19
2023-06-30T16:02:03.080Z,67.18
2023-06-30T16:04:30.801Z,66.71
2023-06-30T16:06:59.342Z,67.58
2023-06-30T16:09:27.054Z,67.80
2023-06-30T16:11:54.702Z,66.92
2023-06-30T16:14:22.290Z,69.91
2023-06-30T16:16:49.896Z,69.38
2023-06-30T16:19:17.504Z,73.58
2023-06-30T16:21:45.115Z,70.32
2023-06-30T16:24:12.707Z,74.57
2023-06-30T16:26:40.756Z,77.86
2023-06-30T16:30:18.797Z,76.99
2023-06-30T16:32:46.572Z,75.78
2023-06-30T16:35:14.269Z,76.50
2023-06-30T16:37:41.979Z,76.51
2023-06-30T16:40:10.943Z,78.14
2023-06-30T16:42:41.228Z,80.28
2023-06-30T16:45:10.591Z,78.68
2023-06-30T16:47:42.866Z,79.61
2023-06-30T16:50:12.911Z,81.61
2023-06-30T16:52:40.737Z,81.79
2023-06-30T16:55:09.048Z,82.99
2023-06-30T16:57:36.710Z,82.90
2023-06-30T17:00:06.138Z,83.93
2023-06-30T17:02:34.151Z,84.04
2023-06-30T17:05:01.948Z,84.65
2023-06-30T17:07:29.695Z,83.70
2023-06-30T17:09:57.259Z,83.83
2023-06-30T17:12:24.892Z,85.49
2023-06-30T17:14:52.740Z,84.95
2023-06-30T17:17:21.505Z,85.18
2023-06-30T17:19:50.891Z,85.58
2023-06-30T17:22:18.700Z,87.78
2023-06-30T17:24:46.281Z,90.18
2023-06-30T17:27:13.912Z,90.90
2023-06-30T17:29:41.578Z,92.43
2023-06-30T17:32:10.127Z,93.37
2023-06-30T17:34:37.724Z,92.42
2023-06-30T17:37:09.223Z,90.51
2023-06-30T17:39:37.843Z,91.09
2023-06-30T17:42:05.743Z,90.19
2023-06-30T17:44:33.317Z,90.56
2023-06-30T17:47:02.382Z,90.49
2023-06-30T17:49:31.750Z,91.25
2023-06-30T17:52:00.081Z,90.70
2023-06-30T17:54:28.553Z,90.54
2023-06-30T17:56:56.672Z,90.90
2023-06-30T17:59:24.625Z,85.82
2023-06-30T18:01:52.227Z,85.06
2023-06-30T18:04:20.033Z,82.66
2023-06-30T18:07:06.236Z,82.12
2023-06-30T18:09:36.223Z,83.50
2023-06-30T18:12:04.860Z,81.12
2023-06-30T18:14:33.773Z,78.27
2023-06-30T18:17:02.263Z,76.37
2023-06-30T18:19:30.125Z,77.87
2023-06-30T18:21:57.822Z,78.41
2023-06-30T18:24:26.064Z,76.09
2023-06-30T18:26:53.948Z,76.04
2023-06-30T18:29:23.972Z,76.23
2023-06-30T18:31:52.822Z,76.03
2023-06-30T18:34:21.961Z,76.02
2023-06-30T18:36:49.766Z,77.47
2023-06-30T18:39:18.297Z,77.74
2023-06-30T18:41:46.172Z,76.06
2023-06-30T18:44:13.854Z,80.34
2023-06-30T18:46:41.624Z,80.29
2023-06-30T18:49:11.933Z,80.35
2023-06-30T18:51:40.087Z,79.52
2023-06-30T18:54:07.941Z,83.13
2023-06-30T18:56:35.586Z,82.36
2023-06-30T18:59:03.928Z,84.98
2023-06-30T19:01:31.601Z,88.16
2023-06-30T19:03:59.396Z,88.10
2023-06-30T19:06:27.870Z,87.67
2023-06-30T19:08:56.228Z,87.11
2023-06-30T19:11:24.672Z,88.15
2023-06-30T19:13:52.807Z,87.81
2023-06-30T19:16:20.657Z,89.35
2023-06-30T19:18:48.416Z,89.87
2023-06-30T19:21:16.414Z,90.50
2023-06-30T19:23:44.256Z,91.98
2023-06-30T19:26:12.899Z,92.44
2023-06-30T19:28:41.612Z,95.03
2023-06-30T19:31:09.628Z,93.48
2023-06-30T19:33:38.037Z,92.75
2023-06-30T19:36:06.335Z,92.60
2023-06-30T19:38:34.185Z,91.53
2023-06-30T19:41:01.912Z,94.18
2023-06-30T19:43:29.716Z,95.71
2023-06-30T19:45:57.345Z,93.85
2023-06-30T19:48:25.100Z,94.01
2023-06-30T19:50:52.896Z,95.78
2023-06-30T19:53:20.820Z,97.33
2023-06-30T19:55:49.066Z,94.50
2023-06-30T19:58:17.686Z,94.50
2023-06-30T20:00:45.550Z,97.86
2023-06-30T20:03:13.755Z,97.69
2023-06-30T20:05:41.901Z,99.38
2023-06-30T20:08:10.724Z,100.00
2023-06-30T20:10:38.970Z,100.00
2023-06-30T20:13:07.855Z,100.00
2023-06-30T20:15:36.045Z,100.00
2023-06-30T20:18:04.334Z,100.00
2023-06-30T20:20:32.394Z,100.00
2023-06-30T20:23:02.186Z,100.00
2023-06-30T20:25:30.204Z,100.00
2023-06-30T20:27:58.442Z,100.00
2023-06-30T20:30:26.727Z,100.00
2023-06-30T20:32:54.924Z,100.00
2023-06-30T20:35:23.074Z,100.00
2023-06-30T20:37:51.151Z,100.00
2023-06-30T20:40:19.724Z,100.00
2023-06-30T20:42:47.805Z,100.00
2023-06-30T20:45:16.177Z,100.00
2023-06-30T20:47:44.377Z,100.00
2023-06-30T20:50:12.864Z,100.00
2023-06-30T20:52:40.565Z,100.00
2023-06-30T20:55:08.530Z,100.00
2023-06-30T20:57:36.755Z,100.00
2023-06-30T21:00:05.746Z,100.00
2023-06-30T21:02:33.597Z,100.00
2023-06-30T21:05:01.433Z,100.00
2023-06-30T21:07:29.120Z,100.00
2023-06-30T21:09:56.789Z,100.00
2023-06-30T21:12:24.369Z,100.00
2023-06-30T21:14:53.174Z,100.00
2023-06-30T21:17:20.868Z,100.00
2023-06-30T21:19:48.563Z,100.00
2023-06-30T21:22:16.227Z,100.00
2023-06-30T21:24:43.783Z,100.00
2023-06-30T21:27:11.477Z,100.00
2023-06-30T21:29:39.456Z,100.00
2023-06-30T21:32:08.302Z,100.00
2023-06-30T21:34:36.298Z,100.00
2023-06-30T21:37:04.033Z,100.00
2023-06-30T21:39:31.657Z,100.00
2023-06-30T21:41:59.311Z,100.00
2023-06-30T21:44:26.835Z,100.00
2023-06-30T21:46:54.391Z,100.00
2023-06-30T21:49:21.985Z,100.00
2023-06-30T21:51:49.609Z,100.00
2023-06-30T21:54:23.695Z,100.00
2023-06-30T21:56:59.037Z,100.00
2023-06-30T21:59:26.639Z,100.00
2023-06-30T22:01:54.401Z,100.00
2023-06-30T22:04:22.059Z,100.00
2023-06-30T22:06:49.663Z,100.00
2023-06-30T22:09:17.274Z,100.00
2023-06-30T22:11:45.222Z,100.00
2023-06-30T22:14:13.315Z,100.00
2023-06-30T22:16:41.040Z,100.00
2023-06-30T22:19:08.816Z,100.00
2023-06-30T22:21:36.484Z,100.00
2023-06-30T22:24:04.399Z,100.00
2023-06-30T22:26:32.002Z,100.00
2023-06-30T22:28:59.643Z,100.00
2023-06-30T22:31:27.314Z,100.00
2023-06-30T22:33:54.935Z,100.00
2023-06-30T22:36:22.614Z,100.00
2023-06-30T22:38:51.287Z,100.00
2023-06-30T22:41:18.947Z,100.00
2023-06-30T22:43:47.690Z,100.00
2023-06-30T22:46:15.495Z,100.00
2023-06-30T22:48:43.058Z,100.00
2023-06-30T22:51:10.786Z,100.00
2023-06-30T22:53:38.397Z,100.00
2023-06-30T22:56:07.507Z,100.00
2023-06-30T22:58:35.220Z,100.00
2023-06-30T23:01:02.802Z,100.00
2023-06-30T23:03:30.603Z,100.00
2023-06-30T23:05:58.286Z,100.00
2023-06-30T23:08:25.911Z,100.00
2023-06-30T23:10:54.058Z,100.00
2023-06-30T23:13:21.661Z,100.00
2023-06-30T23:15:49.369Z,100.00
2023-06-30T23:18:20.190Z,100.00
2023-06-30T23:20:49.408Z,100.00
2023-06-30T23:23:17.371Z,100.00
2023-06-30T23:25:44.933Z,100.00
2023-06-30T23:28:12.678Z,100.00
2023-06-30T23:30:40.947Z,100.00
2023-06-30T23:33:08.827Z,100.00
2023-06-30T23:35:36.463Z,100.00
2023-06-30T23:38:04.014Z,100.00
2023-06-30T23:40:31.577Z,100.00
2023-06-30T23:43:01.026Z,100.00
2023-06-30T23:45:28.679Z,100.00
2023-06-30T23:47:56.357Z,100.00
2023-06-30T23:50:24.088Z,100.00
2023-06-30T23:52:51.814Z,100.00
2023-06-30T23:55:19.421Z,100.00
2023-06-30T23:57:46.988Z,100.00
